sensor_id;sensor_type;location;lat;lon;timestamp;P1;durP1;ratioP1;P2;durP2;ratioP2
77466;SDS011;66564;42.482;25.548;2023-02-28T00:00:35;18.42;;;10.65;;
77466;SDS011;66564;42.482;25.548;2023-02-28T00:03:02;21.83;;;10.73;;
77466;SDS011;66564;42.482;25.548;2023-02-28T00:05:28;14.43;;;9.55;;
77466;SDS011;66564;42.482;25.548;2023-02-28T00:07:54;16.88;;;10.20;;
77466;SDS011;66564;42.482;25.548;2023-02-28T00:10:20;19.05;;;10.40;;
77466;SDS011;66564;42.482;25.548;2023-02-28T00:12:51;16.92;;;9.23;;
77466;SDS011;66564;42.482;25.548;2023-02-28T00:15:19;14.52;;;10.18;;
77466;SDS011;66564;42.482;25.548;2023-02-28T00:17:45;15.75;;;10.57;;
77466;SDS011;66564;42.482;25.548;2023-02-28T00:20:11;18.95;;;10.30;;
77466;SDS011;66564;42.482;25.548;2023-02-28T00:22:38;17.23;;;10.77;;
77466;SDS011;66564;42.482;25.548;2023-02-28T00:25:05;13.02;;;9.63;;
77466;SDS011;66564;42.482;25.548;2023-02-28T00:27:32;16.45;;;10.25;;
77466;SDS011;66564;42.482;25.548;2023-02-28T00:29:58;17.20;;;9.77;;
77466;SDS011;66564;42.482;25.548;2023-02-28T00:32:24;17.75;;;9.88;;
77466;SDS011;66564;42.482;25.548;2023-02-28T00:34:50;17.20;;;10.10;;
77466;SDS011;66564;42.482;25.548;2023-02-28T00:37:15;14.68;;;11.40;;
77466;SDS011;66564;42.482;25.548;2023-02-28T00:39:41;18.05;;;9.82;;
77466;SDS011;66564;42.482;25.548;2023-02-28T00:42:06;17.92;;;10.90;;
77466;SDS011;66564;42.482;25.548;2023-02-28T00:44:32;17.00;;;10.95;;
77466;SDS011;66564;42.482;25.548;2023-02-28T00:46:58;16.58;;;10.27;;
77466;SDS011;66564;42.482;25.548;2023-02-28T00:49:25;18.33;;;10.32;;
77466;SDS011;66564;42.482;25.548;2023-02-28T00:51:51;18.83;;;10.88;;
77466;SDS011;66564;42.482;25.548;2023-02-28T00:54:18;16.30;;;10.45;;
77466;SDS011;66564;42.482;25.548;2023-02-28T00:56:43;17.20;;;11.18;;
77466;SDS011;66564;42.482;25.548;2023-02-28T00:59:11;14.15;;;9.75;;
77466;SDS011;66564;42.482;25.548;2023-02-28T01:01:36;21.13;;;12.27;;
77466;SDS011;66564;42.482;25.548;2023-02-28T01:04:02;18.75;;;9.77;;
77466;SDS011;66564;42.482;25.548;2023-02-28T01:06:28;16.02;;;9.93;;
77466;SDS011;66564;42.482;25.548;2023-02-28T01:08:53;18.58;;;10.88;;
77466;SDS011;66564;42.482;25.548;2023-02-28T01:11:19;23.10;;;10.77;;
77466;SDS011;66564;42.482;25.548;2023-02-28T01:13:45;19.52;;;11.38;;
77466;SDS011;66564;42.482;25.548;2023-02-28T01:16:11;19.70;;;10.45;;
77466;SDS011;66564;42.482;25.548;2023-02-28T01:18:38;17.75;;;10.88;;
77466;SDS011;66564;42.482;25.548;2023-02-28T01:21:07;21.00;;;11.00;;
77466;SDS011;66564;42.482;25.548;2023-02-28T01:23:35;15.25;;;10.65;;
77466;SDS011;66564;42.482;25.548;2023-02-28T01:26:08;20.42;;;10.93;;
77466;SDS011;66564;42.482;25.548;2023-02-28T01:28:54;16.17;;;10.35;;
77466;SDS011;66564;42.482;25.548;2023-02-28T01:31:19;17.30;;;11.07;;
77466;SDS011;66564;42.482;25.548;2023-02-28T01:33:46;23.23;;;11.13;;
77466;SDS011;66564;42.482;25.548;2023-02-28T01:36:13;22.08;;;12.88;;
77466;SDS011;66564;42.482;25.548;2023-02-28T01:38:43;21.27;;;12.13;;
77466;SDS011;66564;42.482;25.548;2023-02-28T01:41:12;22.08;;;11.88;;
77466;SDS011;66564;42.482;25.548;2023-02-28T01:46:14;20.33;;;13.85;;
77466;SDS011;66564;42.482;25.548;2023-02-28T01:51:23;21.75;;;11.63;;
77466;SDS011;66564;42.482;25.548;2023-02-28T01:54:11;18.95;;;11.25;;
77466;SDS011;66564;42.482;25.548;2023-02-28T01:56:45;22.50;;;13.27;;
77466;SDS011;66564;42.482;25.548;2023-02-28T01:59:42;26.20;;;11.80;;
77466;SDS011;66564;42.482;25.548;2023-02-28T02:02:25;22.95;;;12.38;;
77466;SDS011;66564;42.482;25.548;2023-02-28T02:05:00;21.77;;;13.07;;
77466;SDS011;66564;42.482;25.548;2023-02-28T02:07:33;21.27;;;12.20;;
77466;SDS011;66564;42.482;25.548;2023-02-28T02:15:40;23.23;;;12.13;;
77466;SDS011;66564;42.482;25.548;2023-02-28T02:32:19;27.75;;;12.05;;
77466;SDS011;66564;42.482;25.548;2023-02-28T02:35:12;20.95;;;12.02;;
77466;SDS011;66564;42.482;25.548;2023-02-28T02:37:50;20.20;;;11.88;;
77466;SDS011;66564;42.482;25.548;2023-02-28T02:40:43;22.35;;;11.25;;
77466;SDS011;66564;42.482;25.548;2023-02-28T02:43:13;24.30;;;12.43;;
77466;SDS011;66564;42.482;25.548;2023-02-28T02:48:14;21.33;;;11.80;;
77466;SDS011;66564;42.482;25.548;2023-02-28T02:50:45;22.60;;;11.70;;
77466;SDS011;66564;42.482;25.548;2023-02-28T02:53:17;21.77;;;11.10;;
77466;SDS011;66564;42.482;25.548;2023-02-28T02:55:47;24.42;;;11.38;;
77466;SDS011;66564;42.482;25.548;2023-02-28T02:58:19;24.15;;;11.80;;
77466;SDS011;66564;42.482;25.548;2023-02-28T03:00:49;16.48;;;11.02;;
77466;SDS011;66564;42.482;25.548;2023-02-28T03:03:19;19.23;;;10.93;;
77466;SDS011;66564;42.482;25.548;2023-02-28T03:05:54;22.15;;;11.13;;
77466;SDS011;66564;42.482;25.548;2023-02-28T03:08:21;19.88;;;11.35;;
77466;SDS011;66564;42.482;25.548;2023-02-28T03:10:51;16.77;;;10.73;;
77466;SDS011;66564;42.482;25.548;2023-02-28T03:27:27;23.00;;;10.68;;
77466;SDS011;66564;42.482;25.548;2023-02-28T03:30:00;16.33;;;9.77;;
77466;SDS011;66564;42.482;25.548;2023-02-28T03:32:54;21.88;;;10.18;;
77466;SDS011;66564;42.482;25.548;2023-02-28T03:37:58;18.67;;;9.88;;
77466;SDS011;66564;42.482;25.548;2023-02-28T03:40:31;16.55;;;9.88;;
77466;SDS011;66564;42.482;25.548;2023-02-28T03:43:03;20.30;;;10.38;;
77466;SDS011;66564;42.482;25.548;2023-02-28T03:45:35;16.05;;;9.90;;
77466;SDS011;66564;42.482;25.548;2023-02-28T03:48:05;17.75;;;9.68;;
77466;SDS011;66564;42.482;25.548;2023-02-28T03:50:36;18.17;;;9.45;;
77466;SDS011;66564;42.482;25.548;2023-02-28T03:53:10;18.35;;;9.65;;
77466;SDS011;66564;42.482;25.548;2023-02-28T03:55:53;20.88;;;9.93;;
77466;SDS011;66564;42.482;25.548;2023-02-28T03:59:06;18.00;;;9.38;;
77466;SDS011;66564;42.482;25.548;2023-02-28T04:01:22;15.15;;;9.10;;
77466;SDS011;66564;42.482;25.548;2023-02-28T04:04:00;18.67;;;9.45;;
77466;SDS011;66564;42.482;25.548;2023-02-28T04:06:25;16.52;;;9.50;;
77466;SDS011;66564;42.482;25.548;2023-02-28T04:08:52;15.52;;;8.48;;
77466;SDS011;66564;42.482;25.548;2023-02-28T04:13:52;20.58;;;8.93;;
77466;SDS011;66564;42.482;25.548;2023-02-28T04:16:18;14.77;;;8.75;;
77466;SDS011;66564;42.482;25.548;2023-02-28T04:18:43;16.15;;;9.13;;
77466;SDS011;66564;42.482;25.548;2023-02-28T04:21:09;22.50;;;9.70;;
77466;SDS011;66564;42.482;25.548;2023-02-28T04:23:36;17.90;;;9.60;;
77466;SDS011;66564;42.482;25.548;2023-02-28T04:26:01;18.23;;;9.02;;
77466;SDS011;66564;42.482;25.548;2023-02-28T04:28:27;14.18;;;8.55;;
77466;SDS011;66564;42.482;25.548;2023-02-28T04:30:56;16.85;;;9.13;;
77466;SDS011;66564;42.482;25.548;2023-02-28T04:33:27;17.15;;;9.82;;
77466;SDS011;66564;42.482;25.548;2023-02-28T04:36:04;17.25;;;9.82;;
77466;SDS011;66564;42.482;25.548;2023-02-28T04:38:32;18.23;;;9.85;;
77466;SDS011;66564;42.482;25.548;2023-02-28T04:40:59;16.92;;;8.82;;
77466;SDS011;66564;42.482;25.548;2023-02-28T04:43:28;15.40;;;8.30;;
77466;SDS011;66564;42.482;25.548;2023-02-28T04:45:54;18.25;;;9.02;;
77466;SDS011;66564;42.482;25.548;2023-02-28T04:48:24;16.10;;;9.02;;
77466;SDS011;66564;42.482;25.548;2023-02-28T04:50:50;15.32;;;8.68;;
77466;SDS011;66564;42.482;25.548;2023-02-28T04:53:16;22.45;;;9.77;;
77466;SDS011;66564;42.482;25.548;2023-02-28T04:55:42;25.30;;;9.40;;
77466;SDS011;66564;42.482;25.548;2023-02-28T04:58:08;15.05;;;8.93;;
77466;SDS011;66564;42.482;25.548;2023-02-28T05:00:33;17.95;;;11.35;;
77466;SDS011;66564;42.482;25.548;2023-02-28T05:02:59;20.90;;;12.75;;
77466;SDS011;66564;42.482;25.548;2023-02-28T05:05:24;20.42;;;13.77;;
77466;SDS011;66564;42.482;25.548;2023-02-28T05:07:50;21.70;;;12.27;;
77466;SDS011;66564;42.482;25.548;2023-02-28T05:10:15;26.00;;;14.18;;
77466;SDS011;66564;42.482;25.548;2023-02-28T05:12:41;20.85;;;12.77;;
77466;SDS011;66564;42.482;25.548;2023-02-28T05:15:07;19.92;;;13.82;;
77466;SDS011;66564;42.482;25.548;2023-02-28T05:17:37;20.58;;;13.63;;
77466;SDS011;66564;42.482;25.548;2023-02-28T05:20:03;21.58;;;12.90;;
77466;SDS011;66564;42.482;25.548;2023-02-28T05:22:29;21.25;;;11.32;;
77466;SDS011;66564;42.482;25.548;2023-02-28T05:24:55;18.65;;;11.40;;
77466;SDS011;66564;42.482;25.548;2023-02-28T05:27:21;17.90;;;9.20;;
77466;SDS011;66564;42.482;25.548;2023-02-28T05:29:46;13.05;;;8.27;;
77466;SDS011;66564;42.482;25.548;2023-02-28T05:32:12;14.85;;;8.82;;
77466;SDS011;66564;42.482;25.548;2023-02-28T05:34:38;15.18;;;7.68;;
77466;SDS011;66564;42.482;25.548;2023-02-28T05:37:14;15.93;;;8.23;;
77466;SDS011;66564;42.482;25.548;2023-02-28T05:42:07;12.30;;;7.40;;
77466;SDS011;66564;42.482;25.548;2023-02-28T05:44:32;14.73;;;8.00;;
77466;SDS011;66564;42.482;25.548;2023-02-28T05:46:58;13.48;;;7.95;;
77466;SDS011;66564;42.482;25.548;2023-02-28T05:49:23;19.13;;;9.32;;
77466;SDS011;66564;42.482;25.548;2023-02-28T05:51:49;14.95;;;9.15;;
77466;SDS011;66564;42.482;25.548;2023-02-28T05:54:14;13.50;;;7.22;;
77466;SDS011;66564;42.482;25.548;2023-02-28T05:56:40;14.55;;;7.20;;
77466;SDS011;66564;42.482;25.548;2023-02-28T05:59:08;16.00;;;7.97;;
77466;SDS011;66564;42.482;25.548;2023-02-28T06:01:36;12.27;;;7.88;;
77466;SDS011;66564;42.482;25.548;2023-02-28T06:04:07;17.90;;;8.27;;
77466;SDS011;66564;42.482;25.548;2023-02-28T06:06:34;16.25;;;8.60;;
77466;SDS011;66564;42.482;25.548;2023-02-28T06:09:00;12.98;;;8.50;;
77466;SDS011;66564;42.482;25.548;2023-02-28T06:11:27;12.07;;;6.65;;
77466;SDS011;66564;42.482;25.548;2023-02-28T06:13:56;15.70;;;7.93;;
77466;SDS011;66564;42.482;25.548;2023-02-28T06:16:24;17.65;;;8.20;;
77466;SDS011;66564;42.482;25.548;2023-02-28T06:18:50;15.07;;;8.25;;
77466;SDS011;66564;42.482;25.548;2023-02-28T06:21:17;19.33;;;9.07;;
77466;SDS011;66564;42.482;25.548;2023-02-28T06:23:43;14.63;;;7.85;;
77466;SDS011;66564;42.482;25.548;2023-02-28T06:26:09;14.95;;;9.02;;
77466;SDS011;66564;42.482;25.548;2023-02-28T06:28:34;17.67;;;9.00;;
77466;SDS011;66564;42.482;25.548;2023-02-28T06:31:06;13.35;;;8.55;;
77466;SDS011;66564;42.482;25.548;2023-02-28T06:33:32;19.58;;;8.75;;
77466;SDS011;66564;42.482;25.548;2023-02-28T06:35:58;18.98;;;9.40;;
77466;SDS011;66564;42.482;25.548;2023-02-28T06:38:23;16.42;;;8.15;;
77466;SDS011;66564;42.482;25.548;2023-02-28T06:40:53;40.95;;;19.50;;
77466;SDS011;66564;42.482;25.548;2023-02-28T06:43:19;19.48;;;9.73;;
77466;SDS011;66564;42.482;25.548;2023-02-28T06:45:44;14.82;;;8.27;;
77466;SDS011;66564;42.482;25.548;2023-02-28T06:48:10;17.30;;;8.52;;
77466;SDS011;66564;42.482;25.548;2023-02-28T06:50:35;17.60;;;9.65;;
77466;SDS011;66564;42.482;25.548;2023-02-28T06:53:02;17.00;;;8.60;;
77466;SDS011;66564;42.482;25.548;2023-02-28T06:55:27;14.90;;;7.78;;
77466;SDS011;66564;42.482;25.548;2023-02-28T06:57:52;19.10;;;7.78;;
77466;SDS011;66564;42.482;25.548;2023-02-28T07:00:20;18.98;;;9.05;;
77466;SDS011;66564;42.482;25.548;2023-02-28T07:02:45;15.02;;;8.13;;
77466;SDS011;66564;42.482;25.548;2023-02-28T07:05:12;19.25;;;8.98;;
77466;SDS011;66564;42.482;25.548;2023-02-28T07:07:38;15.93;;;7.68;;
77466;SDS011;66564;42.482;25.548;2023-02-28T07:10:08;15.70;;;8.50;;
77466;SDS011;66564;42.482;25.548;2023-02-28T07:12:36;16.67;;;7.95;;
77466;SDS011;66564;42.482;25.548;2023-02-28T07:15:02;17.85;;;8.68;;
77466;SDS011;66564;42.482;25.548;2023-02-28T07:17:29;16.75;;;9.60;;
77466;SDS011;66564;42.482;25.548;2023-02-28T07:19:54;16.05;;;9.13;;
77466;SDS011;66564;42.482;25.548;2023-02-28T07:22:20;14.55;;;8.13;;
77466;SDS011;66564;42.482;25.548;2023-02-28T07:24:46;17.73;;;8.90;;
77466;SDS011;66564;42.482;25.548;2023-02-28T07:27:11;16.50;;;8.55;;
77466;SDS011;66564;42.482;25.548;2023-02-28T07:29:37;17.05;;;10.13;;
77466;SDS011;66564;42.482;25.548;2023-02-28T07:32:03;21.48;;;9.98;;
77466;SDS011;66564;42.482;25.548;2023-02-28T07:34:29;22.95;;;9.75;;
77466;SDS011;66564;42.482;25.548;2023-02-28T07:36:54;24.60;;;10.73;;
77466;SDS011;66564;42.482;25.548;2023-02-28T07:39:21;19.73;;;8.48;;
77466;SDS011;66564;42.482;25.548;2023-02-28T07:41:47;18.20;;;10.02;;
77466;SDS011;66564;42.482;25.548;2023-02-28T07:44:13;19.02;;;9.00;;
77466;SDS011;66564;42.482;25.548;2023-02-28T07:46:38;21.60;;;8.68;;
77466;SDS011;66564;42.482;25.548;2023-02-28T07:49:04;20.55;;;10.10;;
77466;SDS011;66564;42.482;25.548;2023-02-28T07:51:30;18.90;;;9.60;;
77466;SDS011;66564;42.482;25.548;2023-02-28T07:53:56;20.02;;;9.15;;
77466;SDS011;66564;42.482;25.548;2023-02-28T07:56:22;17.33;;;9.63;;
77466;SDS011;66564;42.482;25.548;2023-02-28T07:58:48;23.45;;;8.95;;
77466;SDS011;66564;42.482;25.548;2023-02-28T08:01:13;22.38;;;8.88;;
77466;SDS011;66564;42.482;25.548;2023-02-28T08:03:39;20.42;;;9.05;;
77466;SDS011;66564;42.482;25.548;2023-02-28T08:06:06;20.95;;;9.10;;
77466;SDS011;66564;42.482;25.548;2023-02-28T08:08:32;23.52;;;10.18;;
77466;SDS011;66564;42.482;25.548;2023-02-28T08:11:02;20.48;;;10.20;;
77466;SDS011;66564;42.482;25.548;2023-02-28T08:13:28;15.93;;;9.77;;
77466;SDS011;66564;42.482;25.548;2023-02-28T08:15:54;19.98;;;9.85;;
77466;SDS011;66564;42.482;25.548;2023-02-28T08:18:21;18.80;;;10.38;;
77466;SDS011;66564;42.482;25.548;2023-02-28T08:20:49;24.85;;;10.30;;
77466;SDS011;66564;42.482;25.548;2023-02-28T08:23:15;21.30;;;9.32;;
77466;SDS011;66564;42.482;25.548;2023-02-28T08:25:40;48.00;;;10.98;;
77466;SDS011;66564;42.482;25.548;2023-02-28T08:28:06;21.90;;;12.05;;
77466;SDS011;66564;42.482;25.548;2023-02-28T08:30:31;17.90;;;10.20;;
77466;SDS011;66564;42.482;25.548;2023-02-28T08:32:57;24.75;;;10.23;;
77466;SDS011;66564;42.482;25.548;2023-02-28T08:35:22;20.85;;;9.90;;
77466;SDS011;66564;42.482;25.548;2023-02-28T08:37:49;19.88;;;10.40;;
77466;SDS011;66564;42.482;25.548;2023-02-28T08:40:16;19.65;;;10.68;;
77466;SDS011;66564;42.482;25.548;2023-02-28T08:42:46;22.90;;;9.20;;
77466;SDS011;66564;42.482;25.548;2023-02-28T08:45:12;28.95;;;11.02;;
77466;SDS011;66564;42.482;25.548;2023-02-28T08:47:39;18.75;;;10.43;;
77466;SDS011;66564;42.482;25.548;2023-02-28T08:50:06;21.58;;;11.63;;
77466;SDS011;66564;42.482;25.548;2023-02-28T08:52:32;24.23;;;11.25;;
77466;SDS011;66564;42.482;25.548;2023-02-28T08:54:58;21.40;;;9.77;;
77466;SDS011;66564;42.482;25.548;2023-02-28T08:57:24;21.73;;;10.93;;
77466;SDS011;66564;42.482;25.548;2023-02-28T08:59:51;20.45;;;11.38;;
77466;SDS011;66564;42.482;25.548;2023-02-28T09:02:17;22.63;;;10.45;;
77466;SDS011;66564;42.482;25.548;2023-02-28T09:04:43;27.50;;;10.40;;
77466;SDS011;66564;42.482;25.548;2023-02-28T09:07:10;23.27;;;10.10;;
77466;SDS011;66564;42.482;25.548;2023-02-28T09:09:36;19.10;;;9.65;;
77466;SDS011;66564;42.482;25.548;2023-02-28T09:12:02;21.45;;;10.48;;
77466;SDS011;66564;42.482;25.548;2023-02-28T09:14:28;24.48;;;11.05;;
77466;SDS011;66564;42.482;25.548;2023-02-28T09:16:54;24.65;;;10.68;;
77466;SDS011;66564;42.482;25.548;2023-02-28T09:19:20;24.73;;;12.75;;
77466;SDS011;66564;42.482;25.548;2023-02-28T09:21:45;19.73;;;12.30;;
77466;SDS011;66564;42.482;25.548;2023-02-28T09:24:11;20.58;;;10.18;;
77466;SDS011;66564;42.482;25.548;2023-02-28T09:26:39;23.60;;;10.77;;
77466;SDS011;66564;42.482;25.548;2023-02-28T09:29:05;19.88;;;10.20;;
77466;SDS011;66564;42.482;25.548;2023-02-28T09:31:31;24.58;;;12.63;;
77466;SDS011;66564;42.482;25.548;2023-02-28T09:33:58;35.35;;;17.60;;
77466;SDS011;66564;42.482;25.548;2023-02-28T09:36:24;30.25;;;14.10;;
77466;SDS011;66564;42.482;25.548;2023-02-28T09:38:51;25.00;;;11.48;;
77466;SDS011;66564;42.482;25.548;2023-02-28T09:41:27;16.98;;;10.43;;
77466;SDS011;66564;42.482;25.548;2023-02-28T09:44:05;25.05;;;10.70;;
77466;SDS011;66564;42.482;25.548;2023-02-28T09:46:34;24.45;;;10.13;;
77466;SDS011;66564;42.482;25.548;2023-02-28T09:49:06;24.67;;;11.80;;
77466;SDS011;66564;42.482;25.548;2023-02-28T09:51:46;21.05;;;11.07;;
77466;SDS011;66564;42.482;25.548;2023-02-28T09:54:24;22.38;;;10.70;;
77466;SDS011;66564;42.482;25.548;2023-02-28T10:05:17;20.92;;;11.35;;
77466;SDS011;66564;42.482;25.548;2023-02-28T10:13:05;20.25;;;11.02;;
77466;SDS011;66564;42.482;25.548;2023-02-28T10:15:38;31.08;;;11.95;;
77466;SDS011;66564;42.482;25.548;2023-02-28T10:18:04;25.25;;;13.25;;
77466;SDS011;66564;42.482;25.548;2023-02-28T10:20:35;27.75;;;10.60;;
77466;SDS011;66564;42.482;25.548;2023-02-28T10:25:33;26.75;;;10.77;;
77466;SDS011;66564;42.482;25.548;2023-02-28T10:30:43;22.05;;;10.27;;
77466;SDS011;66564;42.482;25.548;2023-02-28T10:36:02;18.63;;;9.30;;
77466;SDS011;66564;42.482;25.548;2023-02-28T10:43:53;24.65;;;10.45;;
77466;SDS011;66564;42.482;25.548;2023-02-28T10:46:44;24.50;;;12.13;;
77466;SDS011;66564;42.482;25.548;2023-02-28T10:49:13;22.95;;;10.48;;
77466;SDS011;66564;42.482;25.548;2023-02-28T10:51:42;26.25;;;11.85;;
77466;SDS011;66564;42.482;25.548;2023-02-28T10:54:28;25.25;;;11.25;;
77466;SDS011;66564;42.482;25.548;2023-02-28T10:57:06;23.67;;;11.02;;
77466;SDS011;66564;42.482;25.548;2023-02-28T10:59:43;29.17;;;11.23;;
77466;SDS011;66564;42.482;25.548;2023-02-28T11:04:55;18.00;;;10.68;;
77466;SDS011;66564;42.482;25.548;2023-02-28T11:07:21;21.98;;;11.75;;
77466;SDS011;66564;42.482;25.548;2023-02-28T11:09:50;26.10;;;11.63;;
77466;SDS011;66564;42.482;25.548;2023-02-28T11:14:54;21.25;;;11.88;;
77466;SDS011;66564;42.482;25.548;2023-02-28T11:17:23;26.10;;;12.30;;
77466;SDS011;66564;42.482;25.548;2023-02-28T11:19:58;18.13;;;10.52;;
77466;SDS011;66564;42.482;25.548;2023-02-28T11:22:29;23.23;;;11.13;;
77466;SDS011;66564;42.482;25.548;2023-02-28T11:24:59;21.98;;;10.52;;
77466;SDS011;66564;42.482;25.548;2023-02-28T11:30:00;17.65;;;9.63;;
77466;SDS011;66564;42.482;25.548;2023-02-28T11:32:27;23.05;;;10.02;;
77466;SDS011;66564;42.482;25.548;2023-02-28T11:37:35;13.95;;;8.80;;
77466;SDS011;66564;42.482;25.548;2023-02-28T11:40:14;15.43;;;9.20;;
77466;SDS011;66564;42.482;25.548;2023-02-28T11:43:02;17.33;;;9.90;;
77466;SDS011;66564;42.482;25.548;2023-02-28T11:45:54;15.90;;;8.52;;
77466;SDS011;66564;42.482;25.548;2023-02-28T11:48:31;14.15;;;9.18;;
77466;SDS011;66564;42.482;25.548;2023-02-28T11:51:21;16.90;;;9.95;;
77466;SDS011;66564;42.482;25.548;2023-02-28T11:56:38;16.60;;;9.27;;
77466;SDS011;66564;42.482;25.548;2023-02-28T12:07:02;14.05;;;8.98;;
77466;SDS011;66564;42.482;25.548;2023-02-28T12:09:44;16.88;;;10.35;;
77466;SDS011;66564;42.482;25.548;2023-02-28T12:15:02;18.83;;;9.55;;
77466;SDS011;66564;42.482;25.548;2023-02-28T12:23:21;18.52;;;9.65;;
77466;SDS011;66564;42.482;25.548;2023-02-28T12:28:57;17.38;;;9.82;;
77466;SDS011;66564;42.482;25.548;2023-02-28T12:31:49;17.52;;;10.23;;
77466;SDS011;66564;42.482;25.548;2023-02-28T12:34:39;20.73;;;10.50;;
77466;SDS011;66564;42.482;25.548;2023-02-28T12:37:25;19.30;;;11.48;;
77466;SDS011;66564;42.482;25.548;2023-02-28T12:39:59;16.10;;;9.57;;
77466;SDS011;66564;42.482;25.548;2023-02-28T12:42:36;18.88;;;12.10;;
77466;SDS011;66564;42.482;25.548;2023-02-28T12:45:17;23.13;;;11.10;;
77466;SDS011;66564;42.482;25.548;2023-02-28T12:47:46;20.08;;;11.07;;
77466;SDS011;66564;42.482;25.548;2023-02-28T12:58:43;20.77;;;12.57;;
77466;SDS011;66564;42.482;25.548;2023-02-28T13:03:59;21.98;;;12.18;;
77466;SDS011;66564;42.482;25.548;2023-02-28T13:09:13;20.45;;;12.73;;
77466;SDS011;66564;42.482;25.548;2023-02-28T13:11:44;20.70;;;13.23;;
77466;SDS011;66564;42.482;25.548;2023-02-28T13:19:33;30.65;;;17.10;;
77466;SDS011;66564;42.482;25.548;2023-02-28T13:22:02;30.65;;;17.10;;
77466;SDS011;66564;42.482;25.548;2023-02-28T13:29:34;28.02;;;16.50;;
77466;SDS011;66564;42.482;25.548;2023-02-28T13:34:30;29.00;;;15.60;;
77466;SDS011;66564;42.482;25.548;2023-02-28T13:42:50;23.70;;;14.88;;
77466;SDS011;66564;42.482;25.548;2023-02-28T13:48:14;25.70;;;15.95;;
77466;SDS011;66564;42.482;25.548;2023-02-28T14:06:57;26.08;;;15.43;;
77466;SDS011;66564;42.482;25.548;2023-02-28T14:09:28;25.85;;;15.02;;
77466;SDS011;66564;42.482;25.548;2023-02-28T14:11:57;22.60;;;14.02;;
77466;SDS011;66564;42.482;25.548;2023-02-28T14:15:01;30.08;;;16.08;;
77466;SDS011;66564;42.482;25.548;2023-02-28T14:17:27;27.88;;;16.85;;
77466;SDS011;66564;42.482;25.548;2023-02-28T14:19:53;26.83;;;15.15;;
77466;SDS011;66564;42.482;25.548;2023-02-28T14:28:48;28.50;;;14.40;;
77466;SDS011;66564;42.482;25.548;2023-02-28T14:31:36;30.38;;;15.43;;
77466;SDS011;66564;42.482;25.548;2023-02-28T14:36:42;28.23;;;15.88;;
77466;SDS011;66564;42.482;25.548;2023-02-28T14:42:03;27.75;;;15.10;;
77466;SDS011;66564;42.482;25.548;2023-02-28T14:44:29;29.73;;;16.05;;
77466;SDS011;66564;42.482;25.548;2023-02-28T14:46:56;35.75;;;17.55;;
77466;SDS011;66564;42.482;25.548;2023-02-28T14:49:28;32.10;;;16.65;;
77466;SDS011;66564;42.482;25.548;2023-02-28T14:54:28;32.15;;;18.40;;
77466;SDS011;66564;42.482;25.548;2023-02-28T14:56:54;28.98;;;15.75;;
77466;SDS011;66564;42.482;25.548;2023-02-28T14:59:25;27.58;;;15.25;;
77466;SDS011;66564;42.482;25.548;2023-02-28T15:04:43;32.78;;;18.75;;
77466;SDS011;66564;42.482;25.548;2023-02-28T15:07:14;33.45;;;17.55;;
77466;SDS011;66564;42.482;25.548;2023-02-28T15:09:40;31.25;;;15.93;;
77466;SDS011;66564;42.482;25.548;2023-02-28T15:12:06;28.73;;;15.32;;
77466;SDS011;66564;42.482;25.548;2023-02-28T15:14:32;29.48;;;14.90;;
77466;SDS011;66564;42.482;25.548;2023-02-28T15:17:06;31.27;;;16.23;;
77466;SDS011;66564;42.482;25.548;2023-02-28T15:19:37;35.25;;;17.70;;
77466;SDS011;66564;42.482;25.548;2023-02-28T15:22:11;29.75;;;14.50;;
77466;SDS011;66564;42.482;25.548;2023-02-28T15:24:42;28.33;;;14.85;;
77466;SDS011;66564;42.482;25.548;2023-02-28T15:27:25;29.15;;;15.15;;
77466;SDS011;66564;42.482;25.548;2023-02-28T15:29:59;36.42;;;18.15;;
77466;SDS011;66564;42.482;25.548;2023-02-28T15:32:36;31.40;;;16.73;;
77466;SDS011;66564;42.482;25.548;2023-02-28T15:35:18;32.15;;;17.15;;
77466;SDS011;66564;42.482;25.548;2023-02-28T15:40:32;33.53;;;16.58;;
77466;SDS011;66564;42.482;25.548;2023-02-28T15:43:15;27.73;;;16.05;;
77466;SDS011;66564;42.482;25.548;2023-02-28T15:45:49;25.05;;;14.55;;
77466;SDS011;66564;42.482;25.548;2023-02-28T15:50:51;31.10;;;16.90;;
77466;SDS011;66564;42.482;25.548;2023-02-28T15:53:23;27.60;;;15.32;;
77466;SDS011;66564;42.482;25.548;2023-02-28T15:56:02;24.58;;;13.20;;
77466;SDS011;66564;42.482;25.548;2023-02-28T15:58:30;28.70;;;13.35;;
77466;SDS011;66564;42.482;25.548;2023-02-28T16:04:01;21.25;;;12.10;;
77466;SDS011;66564;42.482;25.548;2023-02-28T16:06:35;21.73;;;11.40;;
77466;SDS011;66564;42.482;25.548;2023-02-28T16:09:10;19.90;;;10.52;;
77466;SDS011;66564;42.482;25.548;2023-02-28T16:11:39;17.42;;;9.73;;
77466;SDS011;66564;42.482;25.548;2023-02-28T16:14:18;18.85;;;11.05;;
77466;SDS011;66564;42.482;25.548;2023-02-28T16:16:49;14.35;;;8.23;;
77466;SDS011;66564;42.482;25.548;2023-02-28T16:19:17;17.33;;;10.13;;
77466;SDS011;66564;42.482;25.548;2023-02-28T16:21:42;16.30;;;10.20;;
77466;SDS011;66564;42.482;25.548;2023-02-28T16:24:08;20.55;;;10.40;;
77466;SDS011;66564;42.482;25.548;2023-02-28T16:26:33;21.00;;;9.68;;
77466;SDS011;66564;42.482;25.548;2023-02-28T16:29:00;16.17;;;8.90;;
77466;SDS011;66564;42.482;25.548;2023-02-28T16:31:27;23.63;;;10.82;;
77466;SDS011;66564;42.482;25.548;2023-02-28T16:33:56;16.25;;;8.57;;
77466;SDS011;66564;42.482;25.548;2023-02-28T16:36:22;16.83;;;8.15;;
77466;SDS011;66564;42.482;25.548;2023-02-28T16:38:51;16.30;;;9.02;;
77466;SDS011;66564;42.482;25.548;2023-02-28T16:41:20;17.30;;;8.65;;
77466;SDS011;66564;42.482;25.548;2023-02-28T16:43:50;12.75;;;7.90;;
77466;SDS011;66564;42.482;25.548;2023-02-28T16:46:18;12.13;;;7.78;;
77466;SDS011;66564;42.482;25.548;2023-02-28T16:48:45;16.08;;;8.10;;
77466;SDS011;66564;42.482;25.548;2023-02-28T16:51:15;13.15;;;7.47;;
77466;SDS011;66564;42.482;25.548;2023-02-28T16:53:41;16.30;;;8.63;;
77466;SDS011;66564;42.482;25.548;2023-02-28T16:56:11;14.55;;;7.50;;
77466;SDS011;66564;42.482;25.548;2023-02-28T16:58:41;13.43;;;7.05;;
77466;SDS011;66564;42.482;25.548;2023-02-28T17:01:07;15.02;;;7.10;;
77466;SDS011;66564;42.482;25.548;2023-02-28T17:03:32;13.00;;;6.78;;
77466;SDS011;66564;42.482;25.548;2023-02-28T17:05:58;11.15;;;6.85;;
77466;SDS011;66564;42.482;25.548;2023-02-28T17:08:23;11.93;;;6.50;;
77466;SDS011;66564;42.482;25.548;2023-02-28T17:10:49;10.15;;;5.90;;
77466;SDS011;66564;42.482;25.548;2023-02-28T17:13:14;12.70;;;5.63;;
77466;SDS011;66564;42.482;25.548;2023-02-28T17:15:40;7.70;;;4.95;;
77466;SDS011;66564;42.482;25.548;2023-02-28T17:18:06;9.52;;;5.47;;
77466;SDS011;66564;42.482;25.548;2023-02-28T17:20:34;9.15;;;5.53;;
77466;SDS011;66564;42.482;25.548;2023-02-28T17:23:00;9.52;;;5.32;;
77466;SDS011;66564;42.482;25.548;2023-02-28T17:25:25;10.63;;;5.72;;
77466;SDS011;66564;42.482;25.548;2023-02-28T17:27:51;9.27;;;5.95;;
77466;SDS011;66564;42.482;25.548;2023-02-28T17:30:19;9.80;;;5.43;;
77466;SDS011;66564;42.482;25.548;2023-02-28T17:32:47;17.00;;;6.72;;